Pattison, Mississippi
Current Conditions -  °F | °C
As of 2:15 AM on Friday 24 Oct 2014 (Local Time) from KVKS Reporting Station
Moderate Fog Moderate Fog  
Wind Chill: 46°   Ceiling: 300
Heat Index: 46°   Visibility: 0.25mi
Dew Point: 45°   Wind: 0mph
Humidity: 93%   Direction: NA
Pressure: 30.12"   Gusts: NA
Location:  31.89°N, 90.89°W
Report Text: KVKS 240715Z AUTO 00000KT 1/4SM FG BKN003 08/07 A3012 RMK A01
Loading
Personal Weather Stations






























Interactive Weather Map
Tropical Storm Tracking
New forecast layout! Learn more

10-Day Weather Forecast

Advertisements
Track Severe Weather on mobile